createdAt,value
2023-03-02T00:00:35.116Z,46.20
2023-03-02T00:03:02.380Z,46.20
2023-03-02T00:05:29.545Z,46.20
2023-03-02T00:07:57.074Z,46.20
2023-03-02T00:10:23.923Z,46.20
2023-03-02T00:12:51.135Z,46.20
2023-03-02T00:15:18.029Z,46.20
2023-03-02T00:17:45.241Z,46.80
2023-03-02T00:20:12.611Z,46.20
2023-03-02T00:22:39.639Z,46.20
2023-03-02T00:25:06.720Z,46.20
2023-03-02T00:27:33.763Z,46.20
2023-03-02T00:30:00.868Z,46.10
2023-03-02T00:32:27.705Z,46.10
2023-03-02T00:34:54.577Z,46.10
2023-03-02T00:37:21.271Z,46.60
2023-03-02T00:39:48.179Z,46.10
2023-03-02T00:42:14.872Z,46.10
2023-03-02T00:44:41.666Z,46.00
2023-03-02T00:47:08.403Z,46.00
2023-03-02T00:49:36.596Z,46.00
2023-03-02T00:52:04.097Z,46.00
2023-03-02T00:54:30.928Z,46.00
2023-03-02T00:56:57.834Z,46.10
2023-03-02T00:59:27.589Z,46.00
2023-03-02T01:01:58.530Z,46.00
2023-03-02T01:04:30.989Z,46.10
2023-03-02T01:06:58.334Z,46.10
2023-03-02T01:09:25.048Z,46.00
2023-03-02T01:11:51.795Z,46.00
2023-03-02T01:14:18.676Z,45.90
2023-03-02T01:16:45.493Z,45.90
2023-03-02T01:19:12.202Z,46.00
2023-03-02T01:21:39.120Z,46.00
2023-03-02T01:24:06.107Z,45.90
2023-03-02T01:26:33.249Z,45.90
2023-03-02T01:29:00.284Z,46.00
2023-03-02T01:31:27.260Z,46.00
2023-03-02T01:33:54.196Z,45.90
2023-03-02T01:36:21.451Z,45.90
2023-03-02T01:38:48.419Z,46.10
2023-03-02T01:41:15.195Z,45.90
2023-03-02T01:43:42.064Z,45.90
2023-03-02T01:46:14.995Z,45.90
2023-03-02T01:48:41.761Z,45.90
2023-03-02T01:51:15.989Z,45.90
2023-03-02T01:53:46.746Z,46.10
2023-03-02T01:56:14.740Z,46.00
2023-03-02T01:58:41.556Z,45.90
2023-03-02T02:01:15.601Z,46.60
2023-03-02T02:03:46.029Z,45.90
2023-03-02T02:06:32.027Z,46.00
2023-03-02T02:08:58.891Z,45.90
2023-03-02T02:11:25.659Z,45.90
2023-03-02T02:13:57.177Z,45.90
2023-03-02T02:16:23.912Z,45.90
2023-03-02T02:18:50.650Z,45.90
2023-03-02T02:21:17.562Z,45.90
2023-03-02T02:24:02.406Z,45.90
2023-03-02T02:26:31.689Z,45.90
2023-03-02T02:28:59.820Z,45.90
2023-03-02T02:31:29.564Z,45.90
2023-03-02T02:34:01.177Z,45.90
2023-03-02T02:36:34.117Z,45.80
2023-03-02T02:39:02.338Z,45.90
2023-03-02T02:41:30.350Z,45.80
2023-03-02T02:43:57.581Z,45.80
2023-03-02T02:46:24.480Z,45.80
2023-03-02T02:48:51.351Z,45.80
2023-03-02T02:51:19.054Z,45.80
2023-03-02T02:53:58.930Z,45.70
2023-03-02T02:56:26.856Z,45.80
2023-03-02T02:58:53.959Z,45.80
2023-03-02T03:01:25.637Z,45.70
2023-03-02T03:03:53.503Z,45.80
2023-03-02T03:06:24.382Z,45.80
2023-03-02T03:08:52.057Z,45.80
2023-03-02T03:11:23.372Z,45.80
2023-03-02T03:13:53.454Z,45.70
2023-03-02T03:16:20.276Z,45.70
2023-03-02T03:18:47.178Z,45.70
2023-03-02T03:21:13.947Z,45.70
2023-03-02T03:23:40.824Z,45.80
2023-03-02T03:26:07.602Z,45.70
2023-03-02T03:28:35.765Z,45.70
2023-03-02T03:31:02.843Z,45.70
2023-03-02T03:33:29.626Z,45.70
2023-03-02T03:35:56.409Z,45.60
2023-03-02T03:38:23.328Z,45.70
2023-03-02T03:40:50.027Z,45.70
2023-03-02T03:43:16.939Z,45.70
2023-03-02T03:45:43.729Z,45.70
2023-03-02T03:48:10.756Z,45.60
2023-03-02T03:50:37.616Z,45.70
2023-03-02T03:53:04.327Z,45.70
2023-03-02T03:55:31.453Z,45.70
2023-03-02T03:57:58.360Z,45.70
2023-03-02T04:00:25.098Z,45.60
2023-03-02T04:02:52.112Z,45.70
2023-03-02T04:05:18.820Z,45.60
2023-03-02T04:07:45.611Z,45.60
2023-03-02T04:10:12.474Z,45.60
2023-03-02T04:12:39.609Z,45.60
2023-03-02T04:15:07.141Z,45.60
2023-03-02T04:17:33.918Z,45.60
2023-03-02T04:20:00.723Z,45.60
2023-03-02T04:22:30.231Z,45.60
2023-03-02T04:24:56.954Z,45.50
2023-03-02T04:27:23.749Z,45.60
2023-03-02T04:29:53.050Z,45.60
2023-03-02T04:32:19.917Z,45.70
2023-03-02T04:34:46.600Z,45.50
2023-03-02T04:37:13.408Z,45.60
2023-03-02T04:39:40.232Z,45.60
2023-03-02T04:42:06.928Z,45.50
2023-03-02T04:44:33.564Z,45.60
2023-03-02T04:47:00.332Z,45.60
2023-03-02T04:49:27.057Z,45.40
2023-03-02T04:51:53.763Z,45.50
2023-03-02T04:54:21.640Z,45.60
2023-03-02T04:56:51.746Z,45.50
2023-03-02T04:59:19.893Z,45.50
2023-03-02T05:01:46.825Z,45.60
2023-03-02T05:04:14.938Z,45.50
2023-03-02T05:06:41.946Z,45.50
2023-03-02T05:09:08.950Z,45.40
2023-03-02T05:11:35.796Z,45.60
2023-03-02T05:14:03.176Z,45.50
2023-03-02T05:16:32.735Z,45.50
2023-03-02T05:18:59.960Z,45.50
2023-03-02T05:21:26.668Z,45.40
2023-03-02T05:23:53.348Z,45.60
2023-03-02T05:26:20.071Z,45.50
2023-03-02T05:28:46.717Z,45.50
2023-03-02T05:31:21.132Z,45.40
2023-03-02T05:33:47.882Z,45.50
2023-03-02T05:36:15.165Z,45.20
2023-03-02T05:38:42.741Z,45.40
2023-03-02T05:41:16.651Z,45.40
2023-03-02T05:43:44.489Z,45.90
2023-03-02T05:46:11.249Z,46.00
2023-03-02T05:48:38.001Z,46.00
2023-03-02T05:51:05.297Z,46.60
2023-03-02T05:53:31.983Z,46.00
2023-03-02T05:55:58.670Z,46.00
2023-03-02T05:58:26.310Z,46.00
2023-03-02T06:00:53.017Z,46.00
2023-03-02T06:03:19.717Z,46.00
2023-03-02T06:05:50.978Z,45.90
2023-03-02T06:08:21.527Z,45.90
2023-03-02T06:10:51.239Z,45.90
2023-03-02T06:13:17.912Z,46.00
2023-03-02T06:15:44.889Z,45.90
2023-03-02T06:18:12.716Z,45.90
2023-03-02T06:20:40.451Z,45.90
2023-03-02T06:23:07.331Z,45.90
2023-03-02T06:25:39.028Z,45.90
2023-03-02T06:28:05.809Z,45.90
2023-03-02T06:30:32.495Z,45.90
2023-03-02T06:32:59.954Z,45.90
2023-03-02T06:35:26.770Z,45.90
2023-03-02T06:37:53.574Z,45.90
2023-03-02T06:40:21.793Z,45.90
2023-03-02T06:42:48.486Z,45.80
2023-03-02T06:45:15.161Z,45.90
2023-03-02T06:47:41.889Z,45.90
2023-03-02T06:50:08.928Z,46.50
2023-03-02T06:52:35.583Z,45.80
2023-03-02T06:55:02.609Z,45.90
2023-03-02T06:57:33.896Z,46.50
2023-03-02T07:00:06.881Z,45.80
2023-03-02T07:02:33.814Z,45.70
2023-03-02T07:05:00.610Z,45.90
2023-03-02T07:07:27.444Z,45.80
2023-03-02T07:09:54.223Z,45.80
2023-03-02T07:12:20.989Z,45.70
2023-03-02T07:14:47.759Z,45.80
2023-03-02T07:17:14.837Z,45.80
2023-03-02T07:19:44.570Z,45.80
2023-03-02T07:22:11.451Z,45.70
2023-03-02T07:24:38.579Z,45.70
2023-03-02T07:27:20.709Z,45.70
2023-03-02T07:29:47.526Z,45.70
2023-03-02T07:32:14.459Z,45.70
2023-03-02T07:34:41.474Z,45.70
2023-03-02T07:37:08.219Z,45.70
2023-03-02T07:39:35.004Z,45.70
2023-03-02T07:42:03.303Z,45.70
2023-03-02T07:44:30.659Z,45.70
2023-03-02T07:46:57.512Z,45.70
2023-03-02T07:49:24.331Z,45.70
2023-03-02T07:51:51.098Z,45.70
2023-03-02T07:54:18.060Z,45.80
2023-03-02T07:56:45.318Z,45.70
2023-03-02T07:59:12.661Z,45.70
2023-03-02T08:01:39.583Z,45.70
2023-03-02T08:04:06.604Z,45.70
2023-03-02T08:06:33.420Z,45.60
2023-03-02T08:09:01.761Z,45.70
2023-03-02T08:11:28.503Z,45.60
2023-03-02T08:13:55.666Z,45.60
2023-03-02T08:16:22.575Z,45.70
2023-03-02T08:18:49.568Z,45.60
2023-03-02T08:21:17.072Z,45.70
2023-03-02T08:23:43.980Z,45.60
2023-03-02T08:26:13.467Z,45.60
2023-03-02T08:28:41.156Z,45.70
2023-03-02T08:31:08.061Z,45.60
2023-03-02T08:33:34.934Z,45.70
2023-03-02T08:36:02.651Z,45.60
2023-03-02T08:38:29.717Z,45.60
2023-03-02T08:40:56.379Z,45.70
2023-03-02T08:43:23.592Z,45.50
2023-03-02T08:45:53.698Z,45.60
2023-03-02T08:48:20.853Z,45.60
2023-03-02T08:50:54.490Z,45.60
2023-03-02T08:53:21.142Z,45.50
2023-03-02T08:55:47.841Z,45.60
2023-03-02T08:58:14.502Z,45.60
2023-03-02T09:00:41.263Z,45.50
2023-03-02T09:03:07.961Z,45.60
2023-03-02T09:05:35.847Z,45.60
2023-03-02T09:08:02.905Z,45.60
2023-03-02T09:10:29.688Z,45.50
2023-03-02T09:12:56.347Z,45.50
2023-03-02T09:15:23.041Z,45.60
2023-03-02T09:17:49.712Z,45.60
2023-03-02T09:20:16.440Z,45.60
2023-03-02T09:22:48.598Z,45.60
2023-03-02T09:25:15.301Z,45.50
2023-03-02T09:27:41.951Z,45.50
2023-03-02T09:30:09.042Z,45.50
2023-03-02T09:32:35.905Z,45.50
2023-03-02T09:35:02.720Z,45.60
2023-03-02T09:37:29.505Z,45.60
2023-03-02T09:39:56.241Z,45.50
2023-03-02T09:42:27.096Z,45.60
2023-03-02T09:45:03.694Z,45.60
2023-03-02T09:47:35.976Z,45.60
2023-03-02T09:50:11.188Z,45.40
2023-03-02T09:52:44.049Z,45.50
2023-03-02T09:55:14.705Z,45.50
2023-03-02T09:57:42.121Z,45.60
2023-03-02T10:00:18.993Z,45.60
2023-03-02T10:02:48.100Z,45.50
2023-03-02T10:05:20.650Z,45.50
2023-03-02T10:07:47.840Z,45.50
2023-03-02T10:10:27.147Z,45.60
2023-03-02T10:12:57.047Z,45.60
2023-03-02T10:15:24.330Z,45.50
2023-03-02T10:17:52.922Z,45.60
2023-03-02T10:20:26.031Z,45.50
2023-03-02T10:22:53.198Z,45.50
2023-03-02T10:25:28.985Z,45.40
2023-03-02T10:28:15.888Z,45.40
2023-03-02T10:30:45.863Z,45.40
2023-03-02T10:33:16.675Z,45.40
2023-03-02T10:35:45.597Z,45.40
2023-03-02T10:38:19.371Z,45.40
2023-03-02T10:40:49.914Z,45.50
2023-03-02T10:43:31.973Z,45.40
2023-03-02T10:46:02.321Z,45.40
2023-03-02T10:48:29.035Z,45.40
2023-03-02T10:50:56.572Z,45.50
2023-03-02T10:53:23.243Z,45.50
2023-03-02T10:55:51.587Z,45.40
2023-03-02T10:58:21.384Z,45.40
2023-03-02T11:00:57.275Z,45.50
2023-03-02T11:03:30.223Z,45.50
2023-03-02T11:05:57.256Z,45.40
2023-03-02T11:08:24.798Z,45.40
2023-03-02T11:10:51.444Z,45.40
2023-03-02T11:13:19.000Z,45.40
2023-03-02T11:15:49.548Z,45.50
2023-03-02T11:18:25.411Z,45.50
2023-03-02T11:20:53.130Z,45.40
2023-03-02T11:23:19.876Z,45.40
2023-03-02T11:25:50.836Z,45.40
2023-03-02T11:28:22.169Z,45.40
2023-03-02T11:30:48.982Z,45.50
2023-03-02T11:33:20.684Z,45.40
2023-03-02T11:35:52.221Z,45.40
2023-03-02T11:38:41.744Z,45.40
2023-03-02T11:41:36.093Z,45.40
2023-03-02T11:44:21.300Z,45.40
2023-03-02T11:46:59.282Z,45.40
2023-03-02T11:49:30.018Z,45.50
2023-03-02T11:51:58.475Z,45.40
2023-03-02T11:54:28.956Z,45.40
2023-03-02T11:57:01.852Z,45.40
2023-03-02T11:59:28.958Z,45.40
2023-03-02T12:01:56.965Z,45.40
2023-03-02T12:04:34.045Z,45.30
2023-03-02T12:07:01.487Z,45.30
2023-03-02T12:09:31.290Z,45.40
2023-03-02T12:11:59.528Z,45.40
2023-03-02T12:14:27.483Z,45.50
2023-03-02T12:17:03.836Z,45.40
2023-03-02T12:19:38.971Z,45.40
2023-03-02T12:22:07.000Z,45.40
2023-03-02T12:24:34.376Z,45.40
2023-03-02T12:27:02.783Z,45.40
2023-03-02T12:29:49.713Z,45.40
2023-03-02T12:32:19.491Z,45.40
2023-03-02T12:35:12.604Z,45.40
2023-03-02T12:37:42.308Z,45.30
2023-03-02T12:40:15.224Z,45.40
2023-03-02T12:42:56.521Z,45.40
2023-03-02T12:45:44.908Z,45.30
2023-03-02T12:48:26.925Z,45.40
2023-03-02T12:50:55.621Z,45.40
2023-03-02T12:53:22.346Z,45.40
2023-03-02T12:55:49.195Z,45.40
2023-03-02T12:58:26.104Z,45.40
2023-03-02T13:00:54.087Z,45.40
2023-03-02T13:03:20.979Z,45.30
2023-03-02T13:05:47.729Z,45.30
2023-03-02T13:08:18.814Z,45.40
2023-03-02T13:10:52.319Z,45.40
2023-03-02T13:13:20.130Z,46.00
2023-03-02T13:15:48.133Z,45.40
2023-03-02T13:18:14.871Z,45.40
2023-03-02T13:20:41.553Z,45.40
2023-03-02T13:23:10.158Z,45.30
2023-03-02T13:25:36.947Z,45.40
2023-03-02T13:28:12.559Z,45.40
2023-03-02T13:30:47.683Z,45.40
2023-03-02T13:33:18.618Z,45.40
2023-03-02T13:35:45.795Z,45.40
2023-03-02T13:38:22.564Z,46.00
2023-03-02T13:40:53.201Z,45.30
2023-03-02T13:43:24.002Z,45.40
2023-03-02T13:45:51.886Z,46.00
2023-03-02T13:48:18.590Z,45.40
2023-03-02T13:50:54.550Z,45.40
2023-03-02T13:53:21.226Z,45.30
2023-03-02T13:55:48.202Z,45.30
2023-03-02T13:58:15.916Z,45.40
2023-03-02T14:00:42.617Z,45.40
2023-03-02T14:03:28.548Z,45.30
2023-03-02T14:05:55.368Z,45.40
2023-03-02T14:08:22.095Z,45.40
2023-03-02T14:10:49.097Z,45.30
2023-03-02T14:13:17.108Z,45.30
2023-03-02T14:15:47.210Z,45.30
2023-03-02T14:18:27.931Z,45.40
2023-03-02T14:20:54.839Z,45.40
2023-03-02T14:23:21.569Z,45.40
2023-03-02T14:25:48.314Z,45.40
2023-03-02T14:28:19.616Z,45.30
2023-03-02T14:30:47.049Z,45.40
2023-03-02T14:33:15.970Z,45.40
2023-03-02T14:35:42.819Z,45.50
2023-03-02T14:38:15.719Z,45.40
2023-03-02T14:40:42.394Z,45.40
2023-03-02T14:43:09.215Z,45.40
2023-03-02T14:45:35.873Z,45.40
2023-03-02T14:48:02.530Z,45.40
2023-03-02T14:50:29.246Z,45.40
2023-03-02T14:52:56.659Z,45.40
2023-03-02T14:55:27.240Z,45.30
2023-03-02T14:58:14.606Z,45.40
2023-03-02T15:00:41.986Z,45.30
2023-03-02T15:03:11.017Z,45.30
2023-03-02T15:05:37.724Z,45.40
2023-03-02T15:08:04.786Z,45.40
2023-03-02T15:10:31.496Z,45.40
2023-03-02T15:13:04.325Z,45.50
2023-03-02T15:15:31.019Z,45.40
2023-03-02T15:17:57.678Z,45.50
2023-03-02T15:20:24.375Z,45.40
2023-03-02T15:22:51.073Z,45.40
2023-03-02T15:25:17.765Z,45.50
2023-03-02T15:27:44.480Z,45.40
2023-03-02T15:30:12.363Z,45.40
2023-03-02T15:32:39.122Z,45.50
2023-03-02T15:35:06.078Z,45.40
2023-03-02T15:37:32.758Z,45.50
2023-03-02T15:39:59.426Z,45.40
2023-03-02T15:42:26.109Z,45.50
2023-03-02T15:44:52.835Z,45.40
2023-03-02T15:47:19.747Z,45.50
2023-03-02T15:49:49.467Z,45.40
2023-03-02T15:52:16.299Z,45.50
2023-03-02T15:54:42.944Z,45.50
2023-03-02T15:57:10.205Z,45.50
2023-03-02T15:59:37.174Z,45.50
2023-03-02T16:02:03.944Z,45.50
2023-03-02T16:04:31.109Z,45.50
2023-03-02T16:06:57.918Z,45.60
2023-03-02T16:09:24.742Z,45.50
2023-03-02T16:11:58.390Z,45.50
2023-03-02T16:14:25.533Z,45.50
2023-03-02T16:16:52.400Z,45.50
2023-03-02T16:19:25.337Z,45.50
2023-03-02T16:21:52.164Z,45.50
2023-03-02T16:24:18.913Z,45.40
2023-03-02T16:26:45.644Z,45.50
2023-03-02T16:29:12.576Z,45.40
2023-03-02T16:31:39.456Z,45.50
2023-03-02T16:34:09.196Z,45.50
2023-03-02T16:36:48.538Z,45.50
2023-03-02T16:39:15.285Z,45.50
2023-03-02T16:41:42.515Z,45.50
2023-03-02T16:44:10.080Z,45.50
2023-03-02T16:46:37.256Z,45.50
2023-03-02T16:49:03.920Z,45.50
2023-03-02T16:51:30.680Z,45.50
2023-03-02T16:53:57.339Z,45.50
2023-03-02T16:56:24.028Z,45.50
2023-03-02T16:58:50.779Z,45.40
2023-03-02T17:01:18.316Z,45.40
2023-03-02T17:03:45.340Z,45.40
2023-03-02T17:06:25.058Z,45.40
2023-03-02T17:08:51.821Z,45.40
2023-03-02T17:11:19.076Z,45.30
2023-03-02T17:13:45.805Z,45.30
2023-03-02T17:16:12.705Z,45.30
2023-03-02T17:18:41.033Z,45.20
2023-03-02T17:21:08.001Z,45.30
2023-03-02T17:23:34.724Z,45.30
2023-03-02T17:26:01.864Z,45.30
2023-03-02T17:28:29.057Z,45.40
2023-03-02T17:30:56.073Z,45.40
2023-03-02T17:33:22.821Z,45.30
2023-03-02T17:35:50.176Z,45.40
2023-03-02T17:38:16.844Z,45.40
2023-03-02T17:40:43.581Z,45.40
2023-03-02T17:43:10.384Z,45.30
2023-03-02T17:45:37.122Z,45.30
2023-03-02T17:48:05.368Z,45.40
2023-03-02T17:50:32.477Z,45.30
2023-03-02T17:52:59.904Z,45.30
2023-03-02T17:55:26.844Z,45.30
2023-03-02T17:57:53.570Z,45.30
2023-03-02T18:00:20.793Z,45.30
2023-03-02T18:02:47.474Z,45.40
2023-03-02T18:05:14.231Z,45.40
2023-03-02T18:07:40.904Z,45.20
2023-03-02T18:10:07.682Z,45.20
2023-03-02T18:12:34.482Z,45.30
2023-03-02T18:15:01.173Z,45.20
2023-03-02T18:17:27.872Z,45.20
2023-03-02T18:19:54.599Z,45.30
2023-03-02T18:22:22.123Z,45.20
2023-03-02T18:24:50.552Z,45.20
2023-03-02T18:27:17.326Z,45.20
2023-03-02T18:29:44.033Z,45.20
2023-03-02T18:32:11.192Z,45.10
2023-03-02T18:34:37.918Z,45.20
2023-03-02T18:37:04.647Z,45.20
2023-03-02T18:39:31.322Z,45.20
2023-03-02T18:41:58.062Z,45.10
2023-03-02T18:44:28.131Z,45.10
2023-03-02T18:46:55.245Z,45.20
2023-03-02T18:49:21.977Z,45.20
2023-03-02T18:51:48.767Z,45.10
2023-03-02T18:54:15.490Z,45.10
2023-03-02T18:56:42.145Z,45.10
2023-03-02T18:59:09.971Z,45.10
2023-03-02T19:01:36.760Z,45.10
2023-03-02T19:04:03.657Z,45.10
2023-03-02T19:06:30.661Z,45.10
2023-03-02T19:08:58.641Z,45.00
2023-03-02T19:11:25.365Z,45.00
2023-03-02T19:13:52.365Z,45.00
2023-03-02T19:16:19.210Z,45.00
2023-03-02T19:18:45.976Z,45.10
2023-03-02T19:21:12.655Z,45.10
2023-03-02T19:23:39.764Z,45.10
2023-03-02T19:26:06.977Z,45.10
2023-03-02T19:28:34.503Z,45.10
2023-03-02T19:31:06.748Z,45.10
2023-03-02T19:33:33.689Z,45.10
2023-03-02T19:36:00.605Z,45.10
2023-03-02T19:38:29.282Z,45.10
2023-03-02T19:40:59.560Z,45.10
2023-03-02T19:43:26.274Z,45.10
2023-03-02T19:45:53.090Z,45.00
2023-03-02T19:48:19.842Z,45.10
2023-03-02T19:50:46.598Z,45.10
2023-03-02T19:53:13.393Z,45.10
2023-03-02T19:55:42.551Z,45.10
2023-03-02T19:58:11.199Z,45.10
2023-03-02T20:00:38.890Z,45.10
2023-03-02T20:03:07.182Z,45.10
2023-03-02T20:05:34.108Z,45.10
2023-03-02T20:08:00.796Z,45.10
2023-03-02T20:10:29.134Z,45.10
2023-03-02T20:12:55.884Z,45.20
2023-03-02T20:15:22.973Z,45.10
2023-03-02T20:17:49.634Z,45.00
2023-03-02T20:20:16.451Z,45.20
2023-03-02T20:22:45.547Z,45.20
2023-03-02T20:25:12.904Z,45.20
2023-03-02T20:27:39.625Z,45.20
2023-03-02T20:30:07.696Z,45.10
2023-03-02T20:32:34.474Z,45.20
2023-03-02T20:35:01.272Z,45.20
2023-03-02T20:37:28.072Z,45.10
2023-03-02T20:39:54.842Z,45.20
2023-03-02T20:42:21.528Z,45.20
2023-03-02T20:44:48.339Z,45.30
2023-03-02T20:47:15.608Z,45.30
2023-03-02T20:49:42.612Z,45.30
2023-03-02T20:52:09.653Z,45.40
2023-03-02T20:54:37.533Z,45.40
2023-03-02T20:57:05.672Z,45.40
2023-03-02T20:59:32.487Z,45.40
2023-03-02T21:01:59.335Z,45.30
2023-03-02T21:04:26.023Z,45.40
2023-03-02T21:06:52.856Z,45.30
2023-03-02T21:09:19.912Z,45.40
2023-03-02T21:11:46.658Z,45.40
2023-03-02T21:14:14.301Z,45.40
2023-03-02T21:16:41.498Z,45.50
2023-03-02T21:19:13.138Z,45.40
2023-03-02T21:21:42.216Z,45.40
2023-03-02T21:24:12.629Z,45.40
2023-03-02T21:26:41.554Z,45.50
2023-03-02T21:29:09.530Z,45.50
2023-03-02T21:31:36.334Z,45.50
2023-03-02T21:34:03.120Z,45.60
2023-03-02T21:36:30.261Z,45.50
2023-03-02T21:38:57.021Z,45.60
2023-03-02T21:41:23.816Z,45.60
2023-03-02T21:43:50.773Z,45.60
2023-03-02T21:46:18.988Z,45.50
2023-03-02T21:48:45.935Z,45.50
2023-03-02T21:51:12.855Z,45.60
2023-03-02T21:53:39.724Z,45.50
2023-03-02T21:56:06.711Z,45.40
2023-03-02T21:58:33.537Z,45.40
2023-03-02T22:01:00.492Z,45.40
2023-03-02T22:03:27.406Z,45.40
2023-03-02T22:05:54.225Z,45.50
2023-03-02T22:08:20.972Z,45.50
2023-03-02T22:10:48.459Z,45.40
2023-03-02T22:13:17.458Z,45.30
2023-03-02T22:15:44.918Z,45.40
2023-03-02T22:18:15.586Z,45.40
2023-03-02T22:20:42.905Z,45.40
2023-03-02T22:23:13.387Z,45.40
2023-03-02T22:25:40.297Z,45.30
2023-03-02T22:28:13.804Z,45.40
2023-03-02T22:30:40.543Z,45.40
2023-03-02T22:33:23.463Z,45.30
2023-03-02T22:35:50.847Z,45.40
2023-03-02T22:38:25.046Z,45.30
2023-03-02T22:40:52.107Z,45.40
2023-03-02T22:43:21.925Z,45.30
2023-03-02T22:45:48.849Z,45.30
2023-03-02T22:48:19.649Z,45.30
2023-03-02T22:50:46.814Z,45.30
2023-03-02T22:53:20.033Z,45.30
2023-03-02T22:55:47.032Z,45.30
2023-03-02T22:58:32.566Z,45.40
2023-03-02T23:01:00.000Z,45.40
2023-03-02T23:03:38.097Z,45.20
2023-03-02T23:06:17.151Z,45.30
2023-03-02T23:08:44.698Z,45.40
2023-03-02T23:11:15.721Z,45.40
2023-03-02T23:13:42.494Z,45.30
2023-03-02T23:16:19.917Z,45.20
2023-03-02T23:18:48.101Z,45.40
2023-03-02T23:21:16.231Z,45.20
2023-03-02T23:23:43.049Z,45.30
2023-03-02T23:26:09.875Z,45.30
2023-03-02T23:28:36.634Z,45.20
2023-03-02T23:31:03.484Z,45.30
2023-03-02T23:33:30.207Z,45.10
2023-03-02T23:35:57.049Z,45.20
2023-03-02T23:38:23.851Z,45.20
2023-03-02T23:40:50.555Z,45.20
2023-03-02T23:43:17.241Z,45.20
2023-03-02T23:45:44.013Z,45.10
2023-03-02T23:48:10.746Z,45.20
2023-03-02T23:50:40.536Z,45.20
2023-03-02T23:53:07.257Z,45.20
2023-03-02T23:55:34.031Z,45.20
2023-03-02T23:58:00.800Z,45.10
